Time;durP1;ratioP1;P1;durP2;ratioP2;P2;SDS_P1;SDS_P2;PMS_P1;PMS_P2;Temp;Humidity;BMP_temperature;BMP_pressure;BME280_temperature;BME280_humidity;BME280_pressure;Samples;Min_cycle;Max_cycle;Signal;HPM_P1;HPM_P2
2022/03/07 00:01:46;;;;;;;3.73;3.50;;;;;;;;;;5051376;28;20374;-80
2022/03/07 00:04:16;;;;;;;3.93;3.53;;;;;;;;;;5051434;28;20205;-81
2022/03/07 00:06:44;;;;;;;3.67;3.37;;;;;;;;;;5051364;28;20232;-81
2022/03/07 00:09:11;;;;;;;3.07;2.87;;;;;;;;;;5051276;28;20603;-82
2022/03/07 00:11:39;;;;;;;3.17;2.87;;;;;;;;;;5050111;28;20202;-81
2022/03/07 00:14:06;;;;;;;3.00;2.70;;;;;;;;;;5049813;28;20886;-80
2022/03/07 00:16:35;;;;;;;3.30;3.03;;;;;;;;;;5050745;28;20568;-80
2022/03/07 00:19:02;;;;;;;3.53;3.23;;;;;;;;;;5051330;28;20203;-81
2022/03/07 00:21:29;;;;;;;2.90;2.70;;;;;;;;;;5051780;28;20208;-80
2022/03/07 00:23:56;;;;;;;3.10;2.90;;;;;;;;;;5055093;28;20664;-81
2022/03/07 00:26:23;;;;;;;2.73;2.53;;;;;;;;;;5054671;28;20233;-80
2022/03/07 00:28:51;;;;;;;2.83;2.63;;;;;;;;;;5054967;28;20692;-82
2022/03/07 00:31:20;;;;;;;2.87;2.67;;;;;;;;;;5055075;28;20209;-81
2022/03/07 00:33:50;;;;;;;2.70;2.50;;;;;;;;;;5054741;28;20228;-81
2022/03/07 00:36:18;;;;;;;3.63;3.33;;;;;;;;;;5054355;28;20204;-81
2022/03/07 00:38:45;;;;;;;4.30;3.90;;;;;;;;;;5054701;28;20663;-81
2022/03/07 00:41:12;;;;;;;3.83;3.53;;;;;;;;;;5054713;28;20194;-81
2022/03/07 00:43:40;;;;;;;4.27;3.97;;;;;;;;;;5054586;28;20578;-81
2022/03/07 00:46:08;;;;;;;4.33;3.93;;;;;;;;;;5054707;28;20228;-81
2022/03/07 00:48:35;;;;;;;4.67;3.80;;;;;;;;;;5054506;28;20635;-81
2022/03/07 00:51:03;;;;;;;4.13;3.70;;;;;;;;;;5055132;28;20289;-81
2022/03/07 00:53:31;;;;;;;4.40;3.87;;;;;;;;;;5054582;28;20201;-81
2022/03/07 00:55:58;;;;;;;4.60;3.93;;;;;;;;;;5054182;28;20323;-80
2022/03/07 00:58:25;;;;;;;4.10;3.77;;;;;;;;;;5054467;28;20209;-81
2022/03/07 01:00:52;;;;;;;4.70;4.30;;;;;;;;;;5054325;28;20593;-81
2022/03/07 01:03:20;;;;;;;3.90;3.60;;;;;;;;;;5054202;28;20198;-81
2022/03/07 01:05:48;;;;;;;4.53;4.13;;;;;;;;;;5054546;28;20206;-81
2022/03/07 01:08:17;;;;;;;3.37;3.07;;;;;;;;;;5053872;28;20667;-81
2022/03/07 01:10:44;;;;;;;3.57;3.27;;;;;;;;;;5054214;28;20202;-80
2022/03/07 01:13:11;;;;;;;4.93;4.43;;;;;;;;;;5053929;28;20198;-81
2022/03/07 01:15:39;;;;;;;5.00;4.50;;;;;;;;;;5054056;28;20232;-81
2022/03/07 01:18:06;;;;;;;5.53;5.03;;;;;;;;;;5053892;28;20627;-80
2022/03/07 01:20:34;;;;;;;4.47;4.03;;;;;;;;;;5054013;28;20198;-81
2022/03/07 01:23:01;;;;;;;5.63;5.13;;;;;;;;;;5053803;28;20288;-80
2022/03/07 01:25:30;;;;;;;5.33;4.53;;;;;;;;;;5053694;28;20236;-81
2022/03/07 01:27:57;;;;;;;5.40;4.70;;;;;;;;;;5053696;28;20205;-81
2022/03/07 01:30:26;;;;;;;6.27;5.67;;;;;;;;;;5054393;28;20205;-81
2022/03/07 01:32:53;;;;;;;5.17;4.67;;;;;;;;;;5053025;28;20615;-81
2022/03/07 01:35:21;;;;;;;5.67;4.90;;;;;;;;;;5053496;28;20228;-81
2022/03/07 01:37:48;;;;;;;4.67;4.27;;;;;;;;;;5053809;28;20194;-81
2022/03/07 01:40:15;;;;;;;5.03;4.53;;;;;;;;;;5053634;28;20557;-81
2022/03/07 01:42:44;;;;;;;5.93;5.33;;;;;;;;;;5053419;28;20700;-81
2022/03/07 01:45:12;;;;;;;5.50;4.90;;;;;;;;;;5053436;28;20197;-81
2022/03/07 01:47:40;;;;;;;5.60;5.03;;;;;;;;;;5053269;28;20570;-81
2022/03/07 01:50:10;;;;;;;4.93;4.43;;;;;;;;;;5053502;28;20201;-81
2022/03/07 01:52:39;;;;;;;5.70;5.10;;;;;;;;;;5053191;28;20586;-81
2022/03/07 01:55:09;;;;;;;5.07;4.57;;;;;;;;;;5053146;28;20221;-82
2022/03/07 01:57:37;;;;;;;5.27;4.77;;;;;;;;;;5053153;28;20202;-81
2022/03/07 02:00:10;;;;;;;5.73;4.97;;;;;;;;;;5053292;28;20198;-81
2022/03/07 02:02:37;;;;;;;6.07;5.47;;;;;;;;;;5053361;28;20195;-81
2022/03/07 02:05:05;;;;;;;5.80;5.23;;;;;;;;;;5053169;28;20194;-82
2022/03/07 02:07:32;;;;;;;6.27;5.67;;;;;;;;;;5053225;28;20271;-81
2022/03/07 02:10:00;;;;;;;5.33;4.83;;;;;;;;;;5053130;28;20208;-81
2022/03/07 02:12:27;;;;;;;4.43;4.03;;;;;;;;;;5052807;28;20216;-81
2022/03/07 02:14:54;;;;;;;4.73;3.80;;;;;;;;;;5052718;28;20222;-81
2022/03/07 02:17:23;;;;;;;4.87;4.37;;;;;;;;;;5052706;28;20658;-81
2022/03/07 02:19:50;;;;;;;5.37;4.87;;;;;;;;;;5053198;28;20658;-81
2022/03/07 02:22:19;;;;;;;6.73;5.20;;;;;;;;;;5052969;28;20202;-81
2022/03/07 02:24:46;;;;;;;7.27;5.90;;;;;;;;;;5053275;28;20206;-81
2022/03/07 02:27:15;;;;;;;8.20;6.93;;;;;;;;;;5052147;28;20226;-81
2022/03/07 02:29:42;;;;;;;8.20;7.17;;;;;;;;;;5052708;28;20197;-80
2022/03/07 02:32:10;;;;;;;6.13;5.63;;;;;;;;;;5052784;28;20647;-81
2022/03/07 02:34:37;;;;;;;5.93;5.33;;;;;;;;;;5053097;28;20684;-81
2022/03/07 02:37:04;;;;;;;4.57;4.17;;;;;;;;;;5052228;28;20658;-81
2022/03/07 02:39:33;;;;;;;4.67;3.67;;;;;;;;;;5052604;28;20201;-81
2022/03/07 02:42:00;;;;;;;17.87;7.10;;;;;;;;;;5052384;28;20202;-81
2022/03/07 02:44:27;;;;;;;21.60;5.90;;;;;;;;;;5051708;28;20209;-81
2022/03/07 02:46:55;;;;;;;5.93;5.20;;;;;;;;;;5052716;28;20232;-81
2022/03/07 02:49:22;;;;;;;5.80;5.27;;;;;;;;;;5052312;28;20190;-81
2022/03/07 02:51:49;;;;;;;6.63;5.93;;;;;;;;;;5052567;28;20612;-81
2022/03/07 02:54:17;;;;;;;3.70;3.40;;;;;;;;;;5052130;28;20251;-80
2022/03/07 02:56:47;;;;;;;4.10;3.70;;;;;;;;;;5051862;28;20233;-80
2022/03/07 02:59:14;;;;;;;3.10;2.80;;;;;;;;;;5052186;28;20560;-80
2022/03/07 03:01:43;;;;;;;3.10;2.83;;;;;;;;;;5052059;28;20211;-81
2022/03/07 03:04:10;;;;;;;3.00;2.80;;;;;;;;;;5052119;28;20200;-81
2022/03/07 03:06:37;;;;;;;2.60;2.40;;;;;;;;;;5051916;28;20208;-81
2022/03/07 03:09:05;;;;;;;4.47;2.60;;;;;;;;;;5052247;28;20209;-81
2022/03/07 03:11:32;;;;;;;3.80;3.40;;;;;;;;;;5051852;28;20201;-81
2022/03/07 03:14:02;;;;;;;4.03;3.73;;;;;;;;;;5052204;28;20670;-81
2022/03/07 03:16:29;;;;;;;4.20;3.80;;;;;;;;;;5051696;28;20232;-80
2022/03/07 03:18:57;;;;;;;4.17;3.77;;;;;;;;;;5051684;28;20678;-80
2022/03/07 03:21:24;;;;;;;4.20;3.80;;;;;;;;;;5051626;28;20288;-80
2022/03/07 03:23:51;;;;;;;4.50;4.10;;;;;;;;;;5052342;28;20320;-80
2022/03/07 03:26:18;;;;;;;4.17;3.63;;;;;;;;;;5051604;28;20227;-80
2022/03/07 03:28:45;;;;;;;3.50;3.20;;;;;;;;;;5051639;28;20205;-80
2022/03/07 03:31:14;;;;;;;3.33;3.03;;;;;;;;;;5051683;28;20198;-80
2022/03/07 03:33:42;;;;;;;3.90;3.60;;;;;;;;;;5051806;28;20198;-80
2022/03/07 03:36:09;;;;;;;3.57;3.27;;;;;;;;;;5051615;28;20221;-80
2022/03/07 03:38:37;;;;;;;3.17;2.87;;;;;;;;;;5051287;28;20284;-80
2022/03/07 03:41:04;;;;;;;3.37;3.07;;;;;;;;;;5051687;28;20197;-80
2022/03/07 03:43:31;;;;;;;3.67;3.37;;;;;;;;;;5052078;28;20216;-80
2022/03/07 03:45:58;;;;;;;4.47;4.07;;;;;;;;;;5051667;28;20197;-80
2022/03/07 03:48:27;;;;;;;3.50;3.20;;;;;;;;;;5051488;28;20208;-80
2022/03/07 03:50:54;;;;;;;4.23;3.87;;;;;;;;;;5051577;28;20208;-80
2022/03/07 03:53:21;;;;;;;4.13;3.70;;;;;;;;;;5051369;28;20208;-80
2022/03/07 03:55:48;;;;;;;4.43;4.03;;;;;;;;;;5052428;28;20222;-80
2022/03/07 03:58:15;;;;;;;4.47;4.07;;;;;;;;;;5055418;28;20201;-81
2022/03/07 04:00:43;;;;;;;4.17;3.77;;;;;;;;;;5055860;28;20229;-81
2022/03/07 04:03:10;;;;;;;4.43;3.70;;;;;;;;;;5055471;28;20304;-80
2022/03/07 04:05:39;;;;;;;3.70;3.40;;;;;;;;;;5055621;28;20190;-81
2022/03/07 04:08:06;;;;;;;4.47;3.83;;;;;;;;;;5055539;28;20268;-81
2022/03/07 04:10:34;;;;;;;10.60;8.53;;;;;;;;;;5054807;28;20215;-81
2022/03/07 04:13:01;;;;;;;9.43;8.43;;;;;;;;;;5074160;28;20205;-80
2022/03/07 04:15:28;;;;;;;19.73;13.97;;;;;;;;;;5073988;28;20221;-81
2022/03/07 04:17:55;;;;;;;26.00;17.93;;;;;;;;;;5074093;28;20570;-81
2022/03/07 04:20:22;;;;;;;18.77;14.07;;;;;;;;;;5074178;28;20205;-81
2022/03/07 04:22:52;;;;;;;8.23;7.47;;;;;;;;;;5074339;28;20623;-79
2022/03/07 04:25:20;;;;;;;7.20;6.10;;;;;;;;;;5073793;28;20294;-80
2022/03/07 04:27:47;;;;;;;13.63;10.23;;;;;;;;;;5073713;28;20200;-80
2022/03/07 04:30:14;;;;;;;27.37;18.60;;;;;;;;;;5074129;28;20746;-80
2022/03/07 04:32:41;;;;;;;21.97;15.77;;;;;;;;;;5073834;28;20688;-81
2022/03/07 04:35:10;;;;;;;14.57;9.13;;;;;;;;;;5073686;28;20795;-80
2022/03/07 04:37:40;;;;;;;24.87;18.10;;;;;;;;;;5073749;28;20749;-80
2022/03/07 04:40:10;;;;;;;19.87;15.07;;;;;;;;;;5073393;28;20215;-81
2022/03/07 04:42:37;;;;;;;36.73;26.30;;;;;;;;;;5073898;28;20204;-81
2022/03/07 04:45:04;;;;;;;26.73;20.37;;;;;;;;;;5073613;28;20547;-80
2022/03/07 04:47:32;;;;;;;16.10;13.43;;;;;;;;;;5073211;28;20582;-81
2022/03/07 04:49:59;;;;;;;12.60;11.03;;;;;;;;;;5071267;28;20203;-84
2022/03/07 04:52:26;;;;;;;13.27;11.03;;;;;;;;;;5073128;28;20208;-85
2022/03/07 04:54:53;;;;;;;25.67;17.00;;;;;;;;;;5061743;28;20208;-83
2022/03/07 04:57:22;;;;;;;13.23;10.97;;;;;;;;;;5053079;28;20194;-82
2022/03/07 04:59:49;;;;;;;11.53;9.37;;;;;;;;;;5053190;28;20204;-83
2022/03/07 05:02:16;;;;;;;35.60;28.70;;;;;;;;;;5053090;28;20202;-83
2022/03/07 05:04:43;;;;;;;44.87;32.87;;;;;;;;;;5053464;28;20220;-81
2022/03/07 05:07:11;;;;;;;12.37;11.07;;;;;;;;;;5051760;28;20295;-81
2022/03/07 05:09:38;;;;;;;11.73;10.13;;;;;;;;;;5052993;28;20289;-82
2022/03/07 05:12:06;;;;;;;8.23;7.43;;;;;;;;;;5053111;28;20196;-81
2022/03/07 05:14:34;;;;;;;11.27;9.97;;;;;;;;;;5052970;28;20285;-81
2022/03/07 05:17:01;;;;;;;15.33;11.03;;;;;;;;;;5052879;28;20244;-81
2022/03/07 05:19:28;;;;;;;36.83;23.20;;;;;;;;;;5052528;28;20202;-81
2022/03/07 05:21:56;;;;;;;35.67;23.40;;;;;;;;;;5053428;28;20204;-81
2022/03/07 05:24:23;;;;;;;17.97;13.70;;;;;;;;;;5054261;28;20197;-81
2022/03/07 05:26:50;;;;;;;20.23;15.10;;;;;;;;;;5053494;28;20240;-81
2022/03/07 05:29:17;;;;;;;16.30;12.77;;;;;;;;;;5054176;28;20259;-81
2022/03/07 05:31:46;;;;;;;13.50;12.13;;;;;;;;;;5053668;28;20213;-81
2022/03/07 05:34:13;;;;;;;13.20;10.43;;;;;;;;;;5053535;28;20209;-81
2022/03/07 05:36:40;;;;;;;11.47;10.27;;;;;;;;;;5053833;28;20225;-81
2022/03/07 05:39:08;;;;;;;18.77;12.43;;;;;;;;;;5053682;28;20190;-81
2022/03/07 05:41:36;;;;;;;15.33;13.83;;;;;;;;;;5053569;28;20201;-81
2022/03/07 05:44:04;;;;;;;14.23;12.50;;;;;;;;;;5053706;28;20197;-81
2022/03/07 05:46:31;;;;;;;11.87;10.67;;;;;;;;;;5053233;28;20289;-81
2022/03/07 05:49:01;;;;;;;10.13;8.60;;;;;;;;;;5053722;28;20198;-81
2022/03/07 05:51:28;;;;;;;11.37;9.33;;;;;;;;;;5053620;28;21047;-80
2022/03/07 05:53:55;;;;;;;11.97;10.47;;;;;;;;;;5053746;28;20201;-81
2022/03/07 05:56:22;;;;;;;10.33;8.53;;;;;;;;;;5052948;28;20312;-81
2022/03/07 05:58:49;;;;;;;9.20;7.80;;;;;;;;;;5053249;28;20730;-81
2022/03/07 06:01:16;;;;;;;6.40;5.87;;;;;;;;;;5053261;28;20589;-80
2022/03/07 06:03:44;;;;;;;5.50;5.00;;;;;;;;;;5053211;28;20694;-81
2022/03/07 06:06:12;;;;;;;7.50;6.80;;;;;;;;;;5053431;28;20217;-81
2022/03/07 06:08:39;;;;;;;8.20;6.33;;;;;;;;;;5053031;28;20292;-81
2022/03/07 08:18:19;;;;;;;8.03;7.43;;;;;;;;;;5065868;28;20576;-84
2022/03/07 08:20:46;;;;;;;23.17;19.87;;;;;;;;;;5066003;28;20576;-84
2022/03/07 08:23:14;;;;;;;19.47;15.90;;;;;;;;;;5054760;28;20202;-84
2022/03/07 08:25:41;;;;;;;14.23;12.40;;;;;;;;;;5042885;27;20579;-84
2022/03/07 08:28:08;;;;;;;10.20;9.07;;;;;;;;;;5044971;27;20690;-84
2022/03/07 08:30:35;;;;;;;9.43;7.07;;;;;;;;;;5045461;27;20581;-84
2022/03/07 08:33:02;;;;;;;17.00;9.33;;;;;;;;;;5045265;27;20198;-84
2022/03/07 08:35:31;;;;;;;16.63;9.17;;;;;;;;;;5045299;27;20210;-84
2022/03/07 08:37:58;;;;;;;15.17;11.07;;;;;;;;;;5044893;27;20203;-84
2022/03/07 08:40:25;;;;;;;10.67;8.20;;;;;;;;;;5045353;27;20202;-84
2022/03/07 08:42:53;;;;;;;9.73;8.73;;;;;;;;;;5045074;27;20191;-84
2022/03/07 08:45:20;;;;;;;6.97;6.27;;;;;;;;;;5045284;27;20194;-84
2022/03/07 08:47:48;;;;;;;5.20;4.70;;;;;;;;;;5044978;27;20724;-84
2022/03/07 08:50:18;;;;;;;6.83;6.23;;;;;;;;;;5044990;28;20190;-84
2022/03/07 08:52:47;;;;;;;6.80;6.10;;;;;;;;;;5045552;28;20277;-85
2022/03/07 08:55:15;;;;;;;7.03;6.43;;;;;;;;;;5045330;27;20198;-84
2022/03/07 08:57:42;;;;;;;9.57;8.30;;;;;;;;;;5044943;27;20198;-84
2022/03/07 09:00:11;;;;;;;8.10;7.30;;;;;;;;;;5044884;27;20198;-84
2022/03/07 09:02:38;;;;;;;6.20;5.60;;;;;;;;;;5044870;28;20209;-85
2022/03/07 09:05:07;;;;;;;5.43;4.93;;;;;;;;;;5044948;27;20202;-84
2022/03/07 09:07:34;;;;;;;7.00;6.30;;;;;;;;;;5045032;28;20222;-85
2022/03/07 09:10:05;;;;;;;6.60;5.83;;;;;;;;;;5044640;27;20198;-85
2022/03/07 09:12:32;;;;;;;7.23;6.53;;;;;;;;;;5044909;28;20218;-85
2022/03/07 09:15:02;;;;;;;6.47;5.87;;;;;;;;;;5044921;27;20681;-85
2022/03/07 09:17:29;;;;;;;5.37;4.87;;;;;;;;;;5040666;28;20227;-84
2022/03/07 09:19:57;;;;;;;7.00;6.30;;;;;;;;;;5044718;28;20696;-85
2022/03/07 09:22:24;;;;;;;6.53;5.83;;;;;;;;;;5051087;28;20251;-85
2022/03/07 09:24:52;;;;;;;6.40;5.80;;;;;;;;;;5051485;28;20205;-85
2022/03/07 09:27:21;;;;;;;5.03;4.57;;;;;;;;;;5051177;28;20222;-85
2022/03/07 09:29:48;;;;;;;6.17;5.63;;;;;;;;;;5051293;28;20201;-85
2022/03/07 09:32:16;;;;;;;6.57;5.97;;;;;;;;;;5051061;28;20205;-85
2022/03/07 09:34:44;;;;;;;6.90;6.27;;;;;;;;;;5051086;28;20189;-85
2022/03/07 09:37:11;;;;;;;4.90;4.50;;;;;;;;;;5051014;28;20210;-85
2022/03/07 09:39:38;;;;;;;5.37;4.83;;;;;;;;;;5051186;28;20194;-85
2022/03/07 09:42:06;;;;;;;5.50;5.00;;;;;;;;;;5050964;28;20677;-85
2022/03/07 09:44:35;;;;;;;6.03;5.43;;;;;;;;;;5051080;28;20194;-85
2022/03/07 09:47:03;;;;;;;5.83;5.33;;;;;;;;;;5051253;28;20218;-85
2022/03/07 09:49:30;;;;;;;5.67;5.17;;;;;;;;;;5051205;28;20198;-86
2022/03/07 09:51:58;;;;;;;8.70;7.50;;;;;;;;;;5050839;28;20289;-86
2022/03/07 09:54:25;;;;;;;12.90;11.50;;;;;;;;;;5051098;28;20207;-86
2022/03/07 09:56:52;;;;;;;7.50;6.80;;;;;;;;;;5051122;28;20198;-86
2022/03/07 09:59:20;;;;;;;8.87;8.07;;;;;;;;;;5051042;28;20316;-86
2022/03/07 10:01:59;;;;;;;8.50;7.70;;;;;;;;;;5051202;28;20585;-86
2022/03/07 10:04:26;;;;;;;8.97;8.07;;;;;;;;;;5050807;28;20193;-86
2022/03/07 10:06:54;;;;;;;6.60;6.00;;;;;;;;;;5050714;28;20229;-86
2022/03/07 10:09:21;;;;;;;7.70;6.90;;;;;;;;;;5050949;28;20194;-86
2022/03/07 10:11:53;;;;;;;9.83;8.90;;;;;;;;;;5050647;28;20205;-86
2022/03/07 10:14:31;;;;;;;7.60;6.23;;;;;;;;;;5051228;28;20607;-86
2022/03/07 10:16:59;;;;;;;6.80;6.20;;;;;;;;;;5050902;28;20234;-86
2022/03/07 10:19:28;;;;;;;5.23;4.73;;;;;;;;;;5050926;28;20201;-86
2022/03/07 10:21:55;;;;;;;6.37;5.83;;;;;;;;;;5050624;28;20194;-86
2022/03/07 10:24:33;;;;;;;5.80;5.30;;;;;;;;;;5050537;28;20201;-86
2022/03/07 10:27:00;;;;;;;5.20;4.70;;;;;;;;;;5045895;28;20259;-86
2022/03/07 10:29:27;;;;;;;5.50;4.97;;;;;;;;;;5049210;28;20202;-86
2022/03/07 10:31:54;;;;;;;5.67;5.17;;;;;;;;;;5050573;28;20666;-86
2022/03/07 10:34:24;;;;;;;6.10;5.50;;;;;;;;;;5050308;28;20202;-86
2022/03/07 10:36:52;;;;;;;5.37;4.87;;;;;;;;;;5050173;28;20708;-86
2022/03/07 10:39:25;;;;;;;5.63;5.07;;;;;;;;;;5050339;28;20270;-86
2022/03/07 10:41:52;;;;;;;4.97;4.47;;;;;;;;;;5050383;28;20270;-86
2022/03/07 10:44:29;;;;;;;5.30;4.80;;;;;;;;;;5050258;28;20200;-86
2022/03/07 10:47:07;;;;;;;8.57;7.57;;;;;;;;;;5049961;28;20198;-86
2022/03/07 10:49:36;;;;;;;10.83;9.73;;;;;;;;;;5050054;28;20197;-85
2022/03/07 10:52:05;;;;;;;5.57;5.07;;;;;;;;;;5049927;28;20198;-86
2022/03/07 10:54:37;;;;;;;5.17;4.77;;;;;;;;;;5049972;28;20201;-86
2022/03/07 10:57:05;;;;;;;5.03;4.63;;;;;;;;;;5050160;28;20208;-86
2022/03/07 10:59:33;;;;;;;3.97;3.67;;;;;;;;;;5049839;28;20701;-86
2022/03/07 11:02:01;;;;;;;4.60;4.20;;;;;;;;;;5050074;28;20569;-85
2022/03/07 11:04:29;;;;;;;5.10;4.60;;;;;;;;;;5049894;28;20290;-86
2022/03/07 11:06:58;;;;;;;5.50;5.00;;;;;;;;;;5049587;28;20253;-86
2022/03/07 11:09:27;;;;;;;5.17;4.60;;;;;;;;;;5050297;28;20221;-86
2022/03/07 11:11:55;;;;;;;5.17;4.67;;;;;;;;;;5050121;28;20672;-86
2022/03/07 11:14:23;;;;;;;4.73;4.33;;;;;;;;;;5050323;28;20201;-86
2022/03/07 11:16:51;;;;;;;5.10;4.57;;;;;;;;;;5049651;28;20340;-86
2022/03/07 11:19:19;;;;;;;5.93;5.20;;;;;;;;;;5049890;28;20197;-86
2022/03/07 11:21:50;;;;;;;6.97;6.37;;;;;;;;;;5050026;28;20194;-86
2022/03/07 11:24:20;;;;;;;7.70;7.00;;;;;;;;;;5049835;28;20247;-87
2022/03/07 11:26:49;;;;;;;6.27;5.67;;;;;;;;;;5049555;28;20712;-87
2022/03/07 11:29:16;;;;;;;6.33;5.47;;;;;;;;;;5050023;28;20194;-87
2022/03/07 11:31:44;;;;;;;5.60;5.00;;;;;;;;;;5049783;28;20209;-87
2022/03/07 11:34:12;;;;;;;6.00;5.40;;;;;;;;;;5050034;28;20576;-86
2022/03/07 11:36:44;;;;;;;7.20;6.57;;;;;;;;;;5049519;28;20193;-86
2022/03/07 11:39:13;;;;;;;5.10;4.60;;;;;;;;;;5049536;28;20186;-87
2022/03/07 11:41:42;;;;;;;5.73;5.17;;;;;;;;;;5049407;28;20271;-86
2022/03/07 11:44:11;;;;;;;7.17;6.53;;;;;;;;;;5049334;28;20202;-86
2022/03/07 11:46:40;;;;;;;6.47;5.87;;;;;;;;;;5049500;28;20579;-87
2022/03/07 11:49:09;;;;;;;5.23;4.77;;;;;;;;;;5049467;28;20189;-87
2022/03/07 11:51:37;;;;;;;7.20;6.30;;;;;;;;;;5049594;28;20550;-86
2022/03/07 11:54:06;;;;;;;7.57;5.43;;;;;;;;;;5049269;28;20198;-87
2022/03/07 11:56:35;;;;;;;6.30;5.53;;;;;;;;;;5049526;28;20285;-86
2022/03/07 11:59:06;;;;;;;7.00;5.97;;;;;;;;;;5049346;28;20205;-87
2022/03/07 12:01:34;;;;;;;20.20;15.23;;;;;;;;;;5049264;28;20186;-87
2022/03/07 12:04:09;;;;;;;19.60;15.83;;;;;;;;;;5049243;28;20201;-87
2022/03/07 12:06:43;;;;;;;4.97;4.53;;;;;;;;;;5049536;28;20250;-87
2022/03/07 12:09:10;;;;;;;3.67;3.37;;;;;;;;;;5049274;28;20188;-87
2022/03/07 12:11:38;;;;;;;4.23;3.93;;;;;;;;;;5049374;28;20279;-87
2022/03/07 12:14:09;;;;;;;3.87;3.57;;;;;;;;;;5049511;28;20658;-87
2022/03/07 12:16:37;;;;;;;3.67;2.90;;;;;;;;;;5048749;28;20233;-87
2022/03/07 12:19:09;;;;;;;3.03;2.83;;;;;;;;;;5049017;28;20189;-86
2022/03/07 12:21:37;;;;;;;19.63;15.77;;;;;;;;;;5048979;28;20244;-86
2022/03/07 12:24:06;;;;;;;4.60;4.20;;;;;;;;;;5049036;28;20661;-86
2022/03/07 12:26:33;;;;;;;6.00;5.07;;;;;;;;;;5048605;28;20213;-86
2022/03/07 12:29:00;;;;;;;8.20;6.47;;;;;;;;;;5048642;28;20228;-86
2022/03/07 12:31:29;;;;;;;4.03;3.73;;;;;;;;;;5048496;28;20193;-85
2022/03/07 12:33:56;;;;;;;4.53;4.13;;;;;;;;;;5048669;28;20198;-85
2022/03/07 12:36:25;;;;;;;3.97;3.60;;;;;;;;;;5048485;28;20209;-85
2022/03/07 12:38:54;;;;;;;4.30;3.90;;;;;;;;;;5048690;28;20300;-85
2022/03/07 12:41:22;;;;;;;5.60;4.00;;;;;;;;;;5048551;28;20198;-85
2022/03/07 12:43:53;;;;;;;3.33;3.10;;;;;;;;;;5048062;28;20206;-84
2022/03/07 12:46:20;;;;;;;3.73;3.43;;;;;;;;;;5048598;28;20202;-85
2022/03/07 12:48:49;;;;;;;3.10;2.90;;;;;;;;;;5048267;28;20222;-84
2022/03/07 12:51:18;;;;;;;3.47;3.17;;;;;;;;;;5048288;28;20289;-83
2022/03/07 12:53:49;;;;;;;3.40;3.10;;;;;;;;;;5050391;28;20194;-84
2022/03/07 12:56:18;;;;;;;4.17;3.77;;;;;;;;;;5051632;28;20578;-84
2022/03/07 12:58:54;;;;;;;4.70;4.20;;;;;;;;;;5051611;28;20251;-84
2022/03/07 13:01:22;;;;;;;2.87;2.67;;;;;;;;;;5051732;28;20192;-84
2022/03/07 13:03:52;;;;;;;3.17;2.87;;;;;;;;;;5051871;28;20206;-83
2022/03/07 13:06:19;;;;;;;2.97;2.77;;;;;;;;;;5051349;28;20198;-84
2022/03/07 13:08:48;;;;;;;3.37;3.07;;;;;;;;;;5051458;28;20230;-84
2022/03/07 13:11:16;;;;;;;2.93;2.73;;;;;;;;;;5051611;28;20208;-84
2022/03/07 13:13:44;;;;;;;3.50;2.87;;;;;;;;;;5051672;28;20202;-84
2022/03/07 13:16:12;;;;;;;3.37;3.07;;;;;;;;;;5051215;28;20766;-84
2022/03/07 13:18:39;;;;;;;4.40;4.00;;;;;;;;;;5051057;28;20713;-84
2022/03/07 13:21:07;;;;;;;3.53;3.23;;;;;;;;;;5051455;28;20205;-84
2022/03/07 13:23:35;;;;;;;4.30;3.90;;;;;;;;;;5051232;28;20204;-83
2022/03/07 13:26:02;;;;;;;5.50;4.33;;;;;;;;;;5051058;28;20731;-84
2022/03/07 13:28:30;;;;;;;4.70;4.03;;;;;;;;;;5050982;28;20229;-84
2022/03/07 13:30:58;;;;;;;5.27;4.73;;;;;;;;;;5051098;28;20227;-83
2022/03/07 13:33:33;;;;;;;5.37;4.97;;;;;;;;;;5051007;28;20202;-84
2022/03/07 13:36:08;;;;;;;3.87;3.57;;;;;;;;;;5051332;28;20178;-83
2022/03/07 13:38:38;;;;;;;2.80;2.43;;;;;;;;;;5050890;28;20182;-83
2022/03/07 13:41:09;;;;;;;2.40;2.20;;;;;;;;;;5051046;28;20745;-83
2022/03/07 13:43:36;;;;;;;2.37;2.17;;;;;;;;;;5050952;28;20194;-84
2022/03/07 13:46:14;;;;;;;1.83;1.73;;;;;;;;;;5051285;28;20198;-83
2022/03/07 13:48:41;;;;;;;2.30;2.10;;;;;;;;;;5051173;28;20210;-83
2022/03/07 13:51:08;;;;;;;2.70;2.50;;;;;;;;;;5051146;28;20210;-83
2022/03/07 13:53:38;;;;;;;3.37;3.07;;;;;;;;;;5051114;28;20221;-83
2022/03/07 13:56:06;;;;;;;2.27;2.07;;;;;;;;;;5050651;28;20236;-83
2022/03/07 13:58:36;;;;;;;4.90;4.43;;;;;;;;;;5050613;28;20206;-83
2022/03/07 14:01:05;;;;;;;5.97;5.37;;;;;;;;;;5050742;28;20290;-83
2022/03/07 14:03:32;;;;;;;6.67;6.07;;;;;;;;;;5050300;28;20194;-83
2022/03/07 14:05:59;;;;;;;5.20;4.67;;;;;;;;;;5050504;28;20198;-83
2022/03/07 14:08:31;;;;;;;3.63;3.33;;;;;;;;;;5050613;28;20290;-83
2022/03/07 14:11:00;;;;;;;3.07;2.87;;;;;;;;;;5050922;28;20209;-83
2022/03/07 14:13:37;;;;;;;2.83;2.60;;;;;;;;;;5050423;28;20190;-82
2022/03/07 14:16:05;;;;;;;2.93;2.67;;;;;;;;;;5050085;28;20182;-83
2022/03/07 14:18:32;;;;;;;5.00;4.17;;;;;;;;;;5050596;28;20269;-83
2022/03/07 14:20:59;;;;;;;3.60;3.30;;;;;;;;;;5050363;28;20197;-83
2022/03/07 14:23:26;;;;;;;3.07;2.77;;;;;;;;;;5050271;28;20197;-83
2022/03/07 14:25:55;;;;;;;5.73;4.70;;;;;;;;;;5050422;28;20202;-82
2022/03/07 14:28:24;;;;;;;3.37;3.00;;;;;;;;;;5050102;28;20225;-83
2022/03/07 14:30:51;;;;;;;3.17;2.60;;;;;;;;;;5050390;28;20229;-83
2022/03/07 14:33:18;;;;;;;3.67;3.37;;;;;;;;;;5050179;28;20197;-83
2022/03/07 14:35:46;;;;;;;5.37;3.87;;;;;;;;;;5050303;28;20585;-82
2022/03/07 14:38:13;;;;;;;5.13;3.70;;;;;;;;;;5049996;28;20193;-82
2022/03/07 14:40:40;;;;;;;3.07;2.77;;;;;;;;;;5050505;28;20199;-82
2022/03/07 14:43:07;;;;;;;4.40;3.80;;;;;;;;;;5050267;28;20198;-83
2022/03/07 14:45:36;;;;;;;6.03;5.43;;;;;;;;;;5049744;28;20289;-82
2022/03/07 14:48:04;;;;;;;4.57;3.90;;;;;;;;;;5049714;28;20286;-82
2022/03/07 14:50:31;;;;;;;3.37;3.07;;;;;;;;;;5049943;28;20194;-82
2022/03/07 14:52:58;;;;;;;4.27;3.87;;;;;;;;;;5049818;28;20233;-82
2022/03/07 14:55:25;;;;;;;5.43;4.70;;;;;;;;;;5049554;28;20198;-83
2022/03/07 14:57:53;;;;;;;42.10;26.00;;;;;;;;;;5049956;28;20297;-83
2022/03/07 15:00:22;;;;;;;107.40;50.97;;;;;;;;;;5049717;28;20701;-82
2022/03/07 15:02:51;;;;;;;13.33;9.83;;;;;;;;;;5049589;28;20198;-82
2022/03/07 15:05:18;;;;;;;7.47;6.77;;;;;;;;;;5049462;28;20293;-83
2022/03/07 15:07:46;;;;;;;6.83;5.23;;;;;;;;;;5049474;28;20202;-83
2022/03/07 15:10:13;;;;;;;3.67;3.33;;;;;;;;;;5049664;28;20194;-82
2022/03/07 15:12:40;;;;;;;3.73;3.43;;;;;;;;;;5049651;28;20209;-82
2022/03/07 15:15:08;;;;;;;4.37;3.97;;;;;;;;;;5049009;28;20203;-82
2022/03/07 15:17:50;;;;;;;;;;;;;;;;;;;;;
2022/03/07 15:20:19;;;;;;;3.27;2.97;;;;;;;;;;5049404;28;20194;-82
2022/03/07 15:22:46;;;;;;;3.30;3.00;;;;;;;;;;5049344;28;20205;-82
2022/03/07 15:25:13;;;;;;;3.73;3.40;;;;;;;;;;5049476;28;20194;-82
2022/03/07 15:27:41;;;;;;;4.40;3.73;;;;;;;;;;5049046;28;20209;-82
2022/03/07 15:30:09;;;;;;;4.33;3.93;;;;;;;;;;5049433;28;20198;-82
2022/03/07 15:32:36;;;;;;;4.17;3.33;;;;;;;;;;5049130;28;20205;-81
2022/03/07 15:35:04;;;;;;;5.53;4.90;;;;;;;;;;5049096;28;20605;-82
2022/03/07 15:37:32;;;;;;;4.50;4.10;;;;;;;;;;5049122;28;20209;-82
2022/03/07 15:40:00;;;;;;;4.50;4.10;;;;;;;;;;5049228;28;20646;-82
2022/03/07 15:42:27;;;;;;;3.40;3.10;;;;;;;;;;5049272;28;20194;-82
2022/03/07 15:44:54;;;;;;;3.40;3.10;;;;;;;;;;5048913;28;20206;-82
2022/03/07 15:47:21;;;;;;;3.13;2.93;;;;;;;;;;5049232;28;20205;-82
2022/03/07 15:49:48;;;;;;;2.77;2.53;;;;;;;;;;5049338;28;20229;-82
2022/03/07 15:52:16;;;;;;;3.63;3.33;;;;;;;;;;5048875;28;20206;-82
2022/03/07 15:54:44;;;;;;;2.87;2.63;;;;;;;;;;5049142;28;20206;-82
2022/03/07 15:57:12;;;;;;;2.60;2.40;;;;;;;;;;5049125;28;20202;-81
2022/03/07 15:59:39;;;;;;;4.20;3.03;;;;;;;;;;5049218;28;20229;-82
2022/03/07 16:02:06;;;;;;;2.67;2.47;;;;;;;;;;5048564;28;20289;-82
2022/03/07 16:04:33;;;;;;;4.17;3.77;;;;;;;;;;5048879;28;20209;-82
2022/03/07 16:07:00;;;;;;;2.60;2.40;;;;;;;;;;5048714;28;20202;-82
2022/03/07 16:09:27;;;;;;;3.30;3.00;;;;;;;;;;5048687;28;20221;-82
2022/03/07 16:11:56;;;;;;;3.77;3.23;;;;;;;;;;5048302;28;20281;-82
2022/03/07 16:14:23;;;;;;;3.90;3.50;;;;;;;;;;5048778;28;20288;-82
2022/03/07 16:16:55;;;;;;;3.83;3.43;;;;;;;;;;5048639;28;20605;-82
2022/03/07 16:19:23;;;;;;;3.07;2.77;;;;;;;;;;5048825;28;20182;-82
2022/03/07 16:21:50;;;;;;;16.07;8.57;;;;;;;;;;5048538;28;20658;-81
2022/03/07 16:24:17;;;;;;;3.27;2.63;;;;;;;;;;5048980;28;20194;-82
2022/03/07 16:26:45;;;;;;;3.20;2.90;;;;;;;;;;5048643;28;20198;-82
2022/03/07 16:29:14;;;;;;;3.77;3.13;;;;;;;;;;5050998;28;20222;-82
2022/03/07 16:31:41;;;;;;;2.87;2.57;;;;;;;;;;5051854;28;20190;-82
2022/03/07 16:34:08;;;;;;;2.73;2.53;;;;;;;;;;5052511;28;20209;-82
2022/03/07 16:36:36;;;;;;;2.67;2.20;;;;;;;;;;5051849;28;20772;-81
2022/03/07 16:39:04;;;;;;;2.23;1.97;;;;;;;;;;5051855;28;20194;-82
2022/03/07 16:41:32;;;;;;;2.90;2.47;;;;;;;;;;5051803;28;20198;-82
2022/03/07 16:44:00;;;;;;;5.23;4.73;;;;;;;;;;5051886;28;20202;-82
2022/03/07 16:46:29;;;;;;;3.43;3.13;;;;;;;;;;5052074;28;20225;-82
2022/03/07 16:48:56;;;;;;;2.50;2.30;;;;;;;;;;5052015;28;20706;-82
2022/03/07 16:51:24;;;;;;;5.03;4.53;;;;;;;;;;5051652;28;20194;-82
2022/03/07 16:53:51;;;;;;;5.30;4.80;;;;;;;;;;5051753;28;20250;-82